Terminal Aerodrome Forecast
Issued by NWS Wakefield, VA

Home | Current Version | Previous Version | Text Only | Print | Product List | Glossary On
Versions: 1 2 3 4 5 6 7 8 9 10 11 12 13 14 15 16 17
000
FTUS41 KAKQ 230550 RRA
TAFRIC
TAF
KRIC 230550Z 2306/2406 22010KT P6SM SCT200
     FM231300 25005KT P6SM SCT120
     FM231600 31005KT P6SM BKN100
     FM231800 34005KT P6SM VCSH BKN070
     FM232000 01006KT P6SM SHRA BKN060
     FM240200 02004KT P6SM BKN060=

USA.gov is the U.S. government's official web portal to all federal, state and local government web resources and services.